This is the latest recevied weather packets stored in our database for station/object APPOWX. If no packets are shown the sender has not sent any weather packets the latest 1 day(s).
| Time | Temp. | Humidity | Pressure | Rain* | Wind** | Luminosity | Snow |
|---|---|---|---|---|---|---|---|
| 1778018197 | 24.44° C | 39% | 1014.8 hPa | 0 mm | 0 m/s | - | - |
| 1778018137 | 24.44° C | 39% | 1014.7 hPa | 0 mm | 0.89 m/s, 59° | - | - |
| 1778018077 | 24.44° C | 40% | 1014.8 hPa | 0 mm | 0 m/s | - | - |
| 1778018016 | 24.44° C | 41% | 1014.7 hPa | 0 mm | 0 m/s | - | - |
| 1778017957 | 24.44° C | 40% | 1014.8 hPa | 0 mm | 0.45 m/s, 63° | - | - |
| 1778017896 | 24.44° C | 39% | 1014.9 hPa | 0 mm | 0 m/s | - | - |
| 1778017836 | 24.44° C | 40% | 1014.8 hPa | 0 mm | 0 m/s | - | - |
| 1778017776 | 24.44° C | 40% | 1014.9 hPa | 0 mm | 1.34 m/s, 82° | - | - |
| 1778017716 | 24.44° C | 39% | 1014.8 hPa | 0 mm | 0 m/s | - | - |
| 1778017656 | 24.44° C | 38% | 1014.8 hPa | 0 mm | 0.89 m/s, 61° | - | - |
| 1778017596 | 24.44° C | 40% | 1014.7 hPa | 0 mm | 0.45 m/s, 94° | - | - |
| 1778017535 | 24.44° C | 39% | 1014.7 hPa | 0 mm | 0.45 m/s, 66° | - | - |
| 1778017476 | 24.44° C | 38% | 1014.5 hPa | 0 mm | 0.89 m/s, 77° | - | - |
| 1778017415 | 24.44° C | 37% | 1014.7 hPa | 0 mm | 0.45 m/s, 68° | - | - |
| 1778017355 | 24.44° C | 38% | 1014.5 hPa | 0 mm | 0 m/s | - | - |
| 1778017295 | 24.44° C | 40% | 1014.7 hPa | 0 mm | 0.45 m/s, 81° | - | - |
| 1778017235 | 24.44° C | 40% | 1014.4 hPa | 0 mm | 0.45 m/s, 42° | - | - |
| 1778017175 | 24.44° C | 37% | 1014.5 hPa | 0 mm | 0 m/s | - | - |
| 1778017114 | 24.44° C | 40% | 1014.6 hPa | 0 mm | 0.45 m/s, 70° | - | - |
| 1778017055 | 24.44° C | 39% | 1014.5 hPa | 0 mm | 0.45 m/s, 76° | - | - |
| 1778016995 | 24.44° C | 39% | 1014.5 hPa | 0 mm | 0.45 m/s, 66° | - | - |
| 1778016934 | 25° C | 37% | 1014.4 hPa | 0 mm | 0.89 m/s, 36° | - | - |
| 1778016874 | 25° C | 37% | 1014.7 hPa | 0 mm | 0 m/s | - | - |
| 1778016815 | 25° C | 37% | 1014.7 hPa | 0 mm | 0.45 m/s, 60° | - | - |
| 1778016755 | 25° C | 38% | 1014.6 hPa | 0 mm | 0 m/s | - | - |
* Rain latest hour (hover to see other rain measurements)
** Current wind speed in m/s (hover to see current wind gust speed)